Time;durP1;ratioP1;P1;durP2;ratioP2;P2;SDS_P1;SDS_P2;PMS_P1;PMS_P2;Temp;Humidity;BMP_temperature;BMP_pressure;BME280_temperature;BME280_humidity;BME280_pressure;Samples;Min_cycle;Max_cycle;Signal;HPM_P1;HPM_P2
2020/12/29 00:02:22;;;;;;;7.20;6.40;;;;;;;2.59;78.30;92238.84;4990514;28;20042;-71
2020/12/29 00:04:47;;;;;;;7.72;6.93;;;;;;;2.52;78.08;92219.50;4993762;28;20027;-71
2020/12/29 00:07:12;;;;;;;7.20;6.07;;;;;;;2.55;78.06;92232.72;4990678;28;20053;-69
2020/12/29 00:09:38;;;;;;;5.13;4.57;;;;;;;2.17;75.84;92219.06;4991645;28;20042;-70
2020/12/29 00:12:03;;;;;;;7.63;5.30;;;;;;;2.31;77.56;92225.56;4991505;28;20034;-70
2020/12/29 00:14:28;;;;;;;5.68;4.88;;;;;;;2.41;78.36;92239.38;4991790;28;20381;-70
2020/12/29 00:16:53;;;;;;;5.05;4.55;;;;;;;2.48;78.51;92253.47;4993624;28;20057;-69
2020/12/29 00:19:22;;;;;;;6.53;4.70;;;;;;;2.36;78.19;92236.94;4991250;28;20060;-69
2020/12/29 00:21:47;;;;;;;3.97;3.58;;;;;;;2.51;77.96;92244.22;4991525;28;20124;-70
2020/12/29 00:24:13;;;;;;;3.45;3.15;;;;;;;2.44;76.73;92249.19;4991647;28;20500;-69
2020/12/29 00:26:39;;;;;;;3.63;2.85;;;;;;;2.48;77.37;92266.59;4991529;28;20026;-70
2020/12/29 00:29:04;;;;;;;4.03;3.45;;;;;;;2.47;77.23;92274.81;4992019;28;20057;-71
2020/12/29 00:31:30;;;;;;;3.53;3.22;;;;;;;2.50;77.15;92271.50;4990973;28;20053;-71
2020/12/29 00:33:56;;;;;;;4.72;3.17;;;;;;;2.51;77.62;92267.81;4988900;28;20508;-71
2020/12/29 00:36:22;;;;;;;5.15;3.95;;;;;;;2.60;77.98;92271.09;4989321;28;20100;-71
2020/12/29 00:38:48;;;;;;;3.25;2.95;;;;;;;2.56;77.77;92268.38;4991119;28;20045;-70
2020/12/29 00:41:14;;;;;;;4.40;3.60;;;;;;;2.63;77.67;92282.84;4993220;28;20030;-70
2020/12/29 00:43:40;;;;;;;4.90;3.53;;;;;;;2.64;77.31;92286.97;4991089;28;20039;-71
2020/12/29 00:46:07;;;;;;;3.72;3.13;;;;;;;2.51;76.70;92278.31;4991059;28;20388;-70
2020/12/29 00:48:33;;;;;;;2.70;2.50;;;;;;;2.59;76.99;92272.22;4990932;28;20436;-70
2020/12/29 00:51:04;;;;;;;3.20;2.40;;;;;;;2.47;74.28;92286.06;4989960;28;20636;-71
2020/12/29 00:53:30;;;;;;;1.98;1.70;;;;;;;2.47;75.67;92275.56;4990898;28;20483;-70
2020/12/29 00:55:55;;;;;;;1.73;1.60;;;;;;;2.23;75.38;92301.69;4993000;28;20037;-71
2020/12/29 00:58:20;;;;;;;2.13;1.80;;;;;;;2.33;75.62;92291.56;4990887;28;20043;-70
2020/12/29 01:00:46;;;;;;;3.13;1.88;;;;;;;2.49;76.35;92289.13;4990944;28;20060;-71
2020/12/29 01:03:11;;;;;;;3.67;2.25;;;;;;;2.68;76.46;92291.25;4989303;28;20030;-70
2020/12/29 01:05:36;;;;;;;1.92;1.70;;;;;;;2.68;76.51;92272.13;4990490;28;20026;-71
2020/12/29 01:08:02;;;;;;;1.90;1.80;;;;;;;2.67;77.04;92267.97;4992288;28;20041;-71
2020/12/29 01:10:27;;;;;;;1.77;1.65;;;;;;;2.65;76.26;92268.28;4988721;28;20142;-70
2020/12/29 01:12:52;;;;;;;3.15;1.48;;;;;;;2.66;75.24;92279.53;4990351;28;20173;-70
2020/12/29 01:15:18;;;;;;;2.75;1.85;;;;;;;2.56;75.92;92262.38;4990148;28;20046;-70
2020/12/29 01:17:43;;;;;;;1.80;1.50;;;;;;;2.68;75.67;92275.53;4990215;28;20038;-70
2020/12/29 01:20:08;;;;;;;2.10;1.50;;;;;;;2.60;75.00;92274.50;4991819;28;20037;-71
2020/12/29 01:22:33;;;;;;;2.03;1.10;;;;;;;2.55;75.57;92261.59;4988781;28;20125;-70
2020/12/29 01:24:59;;;;;;;1.10;1.00;;;;;;;2.46;73.93;92271.41;4988800;28;20397;-70
2020/12/29 01:27:24;;;;;;;1.27;1.00;;;;;;;2.54;74.68;92281.03;4990115;28;20173;-70
2020/12/29 01:29:49;;;;;;;2.40;1.40;;;;;;;2.45;75.03;92282.97;4989796;28;20045;-70
2020/12/29 01:32:14;;;;;;;1.70;1.45;;;;;;;2.57;76.30;92284.91;4991587;28;20498;-71
2020/12/29 01:34:40;;;;;;;2.30;1.90;;;;;;;2.71;76.20;92300.34;4990001;28;20042;-70
2020/12/29 01:37:05;;;;;;;2.92;2.17;;;;;;;2.63;75.83;92270.47;4990030;28;20206;-70
2020/12/29 01:39:30;;;;;;;1.90;1.40;;;;;;;2.77;75.84;92283.31;4989685;28;20443;-72
2020/12/29 01:41:56;;;;;;;1.52;1.40;;;;;;;2.84;76.34;92288.78;4989723;28;20046;-70
2020/12/29 01:44:21;;;;;;;2.10;1.83;;;;;;;2.97;76.37;92306.13;4988629;28;20126;-70
2020/12/29 01:46:49;;;;;;;1.40;1.20;;;;;;;1.96;74.17;92302.97;4990167;28;20022;-71
2020/12/29 01:49:16;;;;;;;1.77;1.50;;;;;;;2.15;76.65;92307.75;4989305;28;20046;-71
2020/12/29 01:51:41;;;;;;;1.60;1.50;;;;;;;2.39;76.06;92309.75;4989343;28;20043;-70
2020/12/29 01:54:07;;;;;;;2.55;1.80;;;;;;;2.26;75.94;92293.97;4988096;28;20396;-70
2020/12/29 01:56:38;;;;;;;2.58;1.65;;;;;;;2.47;76.76;92316.78;4989484;28;20054;-70
2020/12/29 01:59:09;;;;;;;3.40;1.70;;;;;;;2.41;76.66;92313.59;4991136;28;20026;-71
2020/12/29 02:01:36;;;;;;;2.13;1.80;;;;;;;2.25;76.68;92296.88;4989368;28;20049;-71
2020/12/29 02:04:01;;;;;;;2.22;1.83;;;;;;;2.01;75.09;92313.28;4989380;28;20121;-70
2020/12/29 02:06:27;;;;;;;3.25;1.90;;;;;;;1.90;76.11;92338.34;4989331;28;20556;-71
2020/12/29 02:08:53;;;;;;;3.00;2.03;;;;;;;2.04;76.94;92333.59;4988007;28;20049;-71
2020/12/29 02:11:18;;;;;;;2.45;1.70;;;;;;;2.14;77.47;92330.59;4989212;28;20026;-70
2020/12/29 02:13:44;;;;;;;2.50;2.00;;;;;;;2.26;77.47;92338.53;4991409;28;20065;-70
2020/12/29 02:16:09;;;;;;;2.70;2.15;;;;;;;2.34;76.94;92347.41;4989287;28;20042;-70
2020/12/29 02:18:34;;;;;;;2.40;1.63;;;;;;;2.43;76.61;92344.75;4989131;28;20078;-70
2020/12/29 02:20:59;;;;;;;2.60;1.55;;;;;;;2.42;75.51;92359.72;4989136;28;20042;-70
2020/12/29 02:23:25;;;;;;;2.65;1.70;;;;;;;2.11;76.09;92306.88;4989360;28;20038;-71
2020/12/29 02:25:50;;;;;;;2.60;1.92;;;;;;;2.47;76.48;92346.41;4991241;28;20081;-70
2020/12/29 02:28:15;;;;;;;3.28;1.60;;;;;;;2.43;75.58;92337.63;4988957;28;20035;-70
2020/12/29 02:30:41;;;;;;;1.85;1.70;;;;;;;2.48;75.50;92352.41;4988033;28;20049;-71
2020/12/29 02:33:06;;;;;;;2.88;1.70;;;;;;;2.57;75.79;92334.75;4989586;28;20097;-69
2020/12/29 02:35:31;;;;;;;1.85;1.30;;;;;;;2.49;75.94;92323.22;4989963;28;20117;-71
2020/12/29 02:37:57;;;;;;;1.35;1.23;;;;;;;2.34;74.58;92316.72;4991343;28;20038;-70
2020/12/29 02:40:22;;;;;;;1.38;1.10;;;;;;;1.76;75.68;92367.38;4989136;28;20532;-72
2020/12/29 02:42:47;;;;;;;2.65;1.30;;;;;;;1.56;77.26;92387.97;4989101;28;20209;-70
2020/12/29 02:45:13;;;;;;;2.65;1.60;;;;;;;1.31;77.72;92383.59;4989063;28;20038;-70
2020/12/29 02:47:38;;;;;;;1.55;1.45;;;;;;;1.50;77.79;92402.31;4989245;28;20053;-71
2020/12/29 02:50:05;;;;;;;1.45;1.35;;;;;;;2.03;77.42;92414.09;4990769;28;20035;-70
2020/12/29 02:52:30;;;;;;;1.85;1.55;;;;;;;2.24;77.09;92405.50;4987570;28;20423;-71
2020/12/29 02:54:56;;;;;;;1.60;1.48;;;;;;;2.45;77.30;92387.16;4987668;28;20049;-70
2020/12/29 02:57:21;;;;;;;1.42;1.33;;;;;;;2.63;77.39;92383.31;4989146;28;20077;-70
2020/12/29 02:59:46;;;;;;;1.30;1.20;;;;;;;2.78;76.78;92395.09;4991282;28;20107;-72
2020/12/29 03:02:12;;;;;;;2.10;1.23;;;;;;;2.93;76.73;92418.13;4993247;28;20387;-71
2020/12/29 03:04:37;;;;;;;0.88;0.88;;;;;;;2.90;75.91;92399.63;4992655;28;20038;-69
2020/12/29 03:07:02;;;;;;;2.15;1.38;;;;;;;2.98;75.96;92402.16;4992575;28;20053;-69
2020/12/29 03:09:27;;;;;;;3.70;1.33;;;;;;;3.10;75.16;92412.69;4992274;28;20472;-70
2020/12/29 03:11:53;;;;;;;1.00;0.90;;;;;;;3.11;75.47;92398.47;4990949;28;20046;-70
2020/12/29 03:14:18;;;;;;;1.42;1.15;;;;;;;3.26;75.50;92419.97;4991520;28;20035;-70
2020/12/29 03:16:43;;;;;;;1.25;0.63;;;;;;;3.26;74.33;92404.22;4993147;28;20085;-70
2020/12/29 03:19:09;;;;;;;1.02;0.98;;;;;;;3.22;74.42;92400.69;4990945;28;20057;-70
2020/12/29 03:21:34;;;;;;;1.10;1.00;;;;;;;3.09;74.19;92403.28;4990939;28;20069;-70
2020/12/29 03:23:59;;;;;;;1.25;1.15;;;;;;;2.97;74.25;92403.25;4992254;28;20598;-70
2020/12/29 03:26:25;;;;;;;1.55;0.98;;;;;;;2.86;74.36;92402.09;4990953;28;20042;-70
2020/12/29 03:28:51;;;;;;;1.38;1.10;;;;;;;2.79;74.31;92404.50;4993872;28;20069;-70
2020/12/29 03:31:17;;;;;;;2.25;1.13;;;;;;;2.67;74.23;92399.97;4991960;28;20046;-70
2020/12/29 03:33:44;;;;;;;2.03;1.10;;;;;;;2.65;74.95;92417.09;4992179;28;20043;-70
2020/12/29 03:36:09;;;;;;;1.55;1.00;;;;;;;2.51;75.00;92402.41;4992026;28;20484;-70
2020/12/29 03:38:34;;;;;;;1.33;1.08;;;;;;;2.42;75.38;92399.06;4991415;28;20046;-70
2020/12/29 03:41:00;;;;;;;1.55;0.93;;;;;;;2.21;74.95;92393.03;4993804;28;20033;-70
2020/12/29 03:43:26;;;;;;;1.20;0.77;;;;;;;2.30;75.50;92404.22;4990416;28;20038;-70
2020/12/29 03:45:51;;;;;;;0.98;0.93;;;;;;;2.32;75.93;92417.81;4991955;28;20121;-70
2020/12/29 03:48:19;;;;;;;0.90;0.90;;;;;;;2.04;75.66;92393.91;4991867;28;20424;-68
2020/12/29 03:50:44;;;;;;;1.83;1.00;;;;;;;1.71;75.57;92368.31;4990441;28;20362;-69
2020/12/29 03:53:10;;;;;;;1.05;1.05;;;;;;;2.10;75.96;92426.72;4992495;28;20033;-70
2020/12/29 03:55:37;;;;;;;1.10;1.00;;;;;;;2.01;76.14;92424.16;4991756;28;20031;-70
2020/12/29 03:58:06;;;;;;;3.63;1.35;;;;;;;2.09;76.30;92448.78;4990634;28;20050;-69
2020/12/29 04:00:32;;;;;;;1.70;1.23;;;;;;;2.16;77.01;92456.16;4991523;28;20038;-70
2020/12/29 04:02:58;;;;;;;1.48;1.38;;;;;;;2.21;76.86;92450.75;4991554;28;20035;-70
2020/12/29 04:05:23;;;;;;;1.05;1.00;;;;;;;2.22;76.27;92462.75;4990142;28;20096;-70
2020/12/29 04:07:49;;;;;;;1.40;1.20;;;;;;;1.41;77.26;92461.06;4992387;28;20061;-70
2020/12/29 04:10:15;;;;;;;1.15;1.05;;;;;;;1.79;77.91;92450.59;4991189;28;20399;-70
2020/12/29 04:12:40;;;;;;;2.10;1.30;;;;;;;1.98;76.35;92458.84;4991246;28;20073;-70
2020/12/29 04:15:06;;;;;;;1.98;1.48;;;;;;;1.95;77.26;92448.25;4991409;28;20039;-70
2020/12/29 04:17:38;;;;;;;3.63;1.73;;;;;;;2.27;77.11;92465.19;4990065;28;20365;-70
2020/12/29 04:20:05;;;;;;;2.97;1.75;;;;;;;2.43;77.46;92466.19;4991773;28;20483;-70
2020/12/29 04:22:32;;;;;;;2.00;1.88;;;;;;;2.27;77.14;92438.97;4990926;28;20579;-70
2020/12/29 04:24:58;;;;;;;1.60;1.50;;;;;;;2.64;76.88;92470.69;4990733;28;20056;-70
2020/12/29 04:27:24;;;;;;;2.33;1.63;;;;;;;2.64;76.69;92462.81;4991030;28;20133;-69
2020/12/29 04:29:50;;;;;;;1.83;1.73;;;;;;;2.73;76.39;92474.03;4990803;28;20492;-70
2020/12/29 04:32:15;;;;;;;1.55;1.45;;;;;;;2.59;76.44;92459.28;4992748;28;20036;-71
2020/12/29 04:34:40;;;;;;;2.80;1.60;;;;;;;2.34;75.40;92492.47;4990814;28;20133;-70
2020/12/29 04:37:06;;;;;;;2.25;1.92;;;;;;;2.21;75.44;92466.47;4989511;28;20061;-70
2020/12/29 04:39:31;;;;;;;2.72;2.28;;;;;;;2.40;76.06;92460.78;4990438;28;20049;-69
2020/12/29 04:42:02;;;;;;;2.53;1.92;;;;;;;2.50;76.42;92476.16;4990415;28;20050;-70
2020/12/29 04:44:29;;;;;;;2.75;2.20;;;;;;;2.65;76.31;92501.84;4990772;28;20040;-69
2020/12/29 04:46:54;;;;;;;9.27;2.30;;;;;;;2.73;76.12;92516.03;4991389;28;20034;-72
2020/12/29 04:49:21;;;;;;;2.53;1.83;;;;;;;2.77;75.73;92522.94;4990551;28;20420;-70
2020/12/29 04:51:47;;;;;;;2.22;1.60;;;;;;;2.86;75.56;92533.38;4990370;28;20027;-70
2020/12/29 04:54:17;;;;;;;2.08;1.60;;;;;;;2.85;75.30;92529.22;4989271;28;20037;-70
2020/12/29 04:56:43;;;;;;;2.03;1.30;;;;;;;2.81;74.97;92531.69;4990682;28;20049;-70
2020/12/29 04:59:09;;;;;;;1.23;1.10;;;;;;;2.74;75.06;92530.69;4992188;28;20526;-70
2020/12/29 05:01:35;;;;;;;1.17;1.00;;;;;;;2.75;74.47;92551.34;4990133;28;20034;-70
2020/12/29 05:04:01;;;;;;;1.25;1.10;;;;;;;2.66;75.00;92555.09;4990454;28;20035;-70
2020/12/29 05:06:26;;;;;;;3.03;1.00;;;;;;;2.75;74.61;92550.59;4988964;28;20419;-71
2020/12/29 05:08:53;;;;;;;1.25;1.00;;;;;;;2.85;74.63;92539.72;4990074;28;20042;-69
2020/12/29 05:11:22;;;;;;;1.80;0.70;;;;;;;2.69;74.60;92510.63;4988486;28;20435;-70
2020/12/29 05:13:48;;;;;;;3.90;1.40;;;;;;;2.77;74.56;92546.56;4990873;28;20038;-71
2020/12/29 05:16:15;;;;;;;0.70;0.70;;;;;;;2.80;74.65;92555.66;4990246;28;20039;-70
2020/12/29 05:18:41;;;;;;;1.20;1.10;;;;;;;2.79;74.55;92578.50;4989776;28;20089;-69
2020/12/29 05:21:07;;;;;;;1.27;1.00;;;;;;;2.84;74.02;92585.44;4989686;28;20614;-70
2020/12/29 05:23:32;;;;;;;1.20;1.00;;;;;;;2.83;73.39;92576.78;4989673;28;20027;-69
2020/12/29 05:25:58;;;;;;;1.27;1.10;;;;;;;2.85;74.38;92571.97;4991865;28;20030;-70
2020/12/29 05:28:27;;;;;;;0.90;0.90;;;;;;;2.84;73.81;92588.06;4989618;28;20039;-70
2020/12/29 05:30:58;;;;;;;1.23;1.13;;;;;;;2.76;73.61;92567.88;4988592;28;20042;-70
2020/12/29 05:33:23;;;;;;;1.35;1.20;;;;;;;2.72;73.78;92569.59;4989610;28;20041;-70
2020/12/29 05:35:55;;;;;;;2.00;1.67;;;;;;;2.68;73.21;92572.09;4989810;28;20034;-70
2020/12/29 05:38:21;;;;;;;2.72;1.27;;;;;;;2.64;73.55;92573.03;4989392;28;20038;-70
2020/12/29 05:40:47;;;;;;;3.47;1.10;;;;;;;2.78;73.64;92594.59;4990260;28;20022;-70
2020/12/29 05:43:13;;;;;;;1.83;0.90;;;;;;;2.76;73.35;92586.25;4989392;28;20109;-69
2020/12/29 05:45:39;;;;;;;2.85;1.00;;;;;;;2.68;73.16;92574.72;4989917;28;20508;-70
2020/12/29 05:48:05;;;;;;;1.23;1.00;;;;;;;2.55;73.40;92575.69;4988348;28;20026;-70
2020/12/29 05:50:31;;;;;;;1.55;1.10;;;;;;;2.45;73.15;92586.53;4989397;28;20058;-71
2020/12/29 05:53:06;;;;;;;1.65;1.10;;;;;;;2.52;72.94;92613.84;4991112;28;20456;-70
2020/12/29 05:55:33;;;;;;;2.38;1.00;;;;;;;2.37;73.23;92605.72;4989386;28;20038;-70
2020/12/29 05:58:05;;;;;;;1.20;1.10;;;;;;;2.40;73.67;92632.09;4988081;28;20042;-71
2020/12/29 06:00:30;;;;;;;1.08;0.90;;;;;;;2.24;73.35;92615.31;4989185;28;20065;-70
2020/12/29 06:02:57;;;;;;;1.88;1.00;;;;;;;2.25;73.64;92620.28;4987985;28;20050;-70
2020/12/29 06:05:24;;;;;;;1.30;1.20;;;;;;;2.37;73.22;92632.72;4988405;28;20050;-70
2020/12/29 06:07:55;;;;;;;4.78;1.10;;;;;;;2.36;72.68;92633.81;4990087;28;20383;-69
2020/12/29 06:10:22;;;;;;;0.90;0.90;;;;;;;2.33;73.27;92639.69;4989098;28;20054;-71
2020/12/29 06:12:53;;;;;;;2.08;1.10;;;;;;;2.39;73.47;92654.16;4989442;28;20034;-70
2020/12/29 06:15:24;;;;;;;2.33;1.15;;;;;;;2.32;73.59;92630.28;4988037;28;20026;-70
2020/12/29 06:17:54;;;;;;;49.35;2.50;;;;;;;2.47;74.07;92650.75;4989414;28;20190;-71
2020/12/29 06:20:19;;;;;;;18.48;1.75;;;;;;;2.35;72.63;92624.38;4990973;28;20038;-69
2020/12/29 06:22:45;;;;;;;2.47;1.30;;;;;;;2.41;73.39;92638.88;4989631;28;20117;-70
2020/12/29 06:25:16;;;;;;;4.90;1.30;;;;;;;2.30;73.16;92640.28;4987557;28;20038;-69
2020/12/29 06:27:49;;;;;;;1.80;1.00;;;;;;;2.48;72.94;92654.16;4987951;28;20121;-71
2020/12/29 06:30:16;;;;;;;1.20;1.10;;;;;;;2.30;71.54;92658.66;4988693;28;20392;-68
2020/12/29 06:32:49;;;;;;;1.63;1.00;;;;;;;2.30;72.64;92656.81;4987558;28;20480;-68
2020/12/29 06:35:17;;;;;;;4.03;1.20;;;;;;;2.09;72.73;92643.56;4994478;28;20033;-68
2020/12/29 06:37:50;;;;;;;3.25;1.33;;;;;;;2.00;72.69;92650.72;4993914;28;20070;-68
2020/12/29 06:40:19;;;;;;;1.92;1.33;;;;;;;1.88;72.91;92647.16;4993859;28;20050;-68
2020/12/29 06:42:45;;;;;;;2.80;1.38;;;;;;;1.78;73.25;92658.72;4993913;28;20117;-70
2020/12/29 06:45:12;;;;;;;1.40;1.30;;;;;;;1.21;73.34;92670.09;4992195;28;20475;-73
2020/12/29 06:47:39;;;;;;;1.30;1.20;;;;;;;1.44;73.38;92686.47;4993176;28;20030;-74
2020/12/29 06:50:32;;;;;;;1.77;1.15;;;;;;;1.55;73.85;92686.94;4993754;28;20030;-74
2020/12/29 06:53:03;;;;;;;2.03;1.58;;;;;;;1.39;73.95;92683.22;4994357;28;20046;-72
2020/12/29 06:55:49;;;;;;;1.50;1.40;;;;;;;1.44;74.19;92707.44;4993681;28;20030;-72
2020/12/29 06:58:32;;;;;;;2.05;1.00;;;;;;;1.50;74.21;92721.91;4993102;28;20114;-72
2020/12/29 07:01:20;;;;;;;4.75;1.20;;;;;;;1.49;74.40;92720.38;4993786;28;20054;-74
2020/12/29 07:03:47;;;;;;;4.40;1.50;;;;;;;1.43;74.44;92718.97;4993535;28;20052;-74
2020/12/29 07:06:12;;;;;;;2.25;1.42;;;;;;;1.39;73.75;92722.53;4993583;28;20030;-72
2020/12/29 07:08:38;;;;;;;2.53;1.50;;;;;;;1.40;74.26;92743.16;4993391;28;23123;-73
2020/12/29 07:11:17;;;;;;;0.95;0.95;;;;;;;1.40;74.07;92737.94;4995465;28;20036;-71
2020/12/29 07:13:46;;;;;;;1.70;1.20;;;;;;;1.38;74.36;92744.53;4993323;28;20045;-71
2020/12/29 07:16:12;;;;;;;1.67;1.25;;;;;;;1.44;73.61;92748.56;4992080;28;20045;-69
2020/12/29 07:18:43;;;;;;;1.40;1.30;;;;;;;1.44;74.19;92749.34;4993304;28;20054;-70
2020/12/29 07:21:22;;;;;;;1.33;1.23;;;;;;;1.53;74.05;92763.22;4992420;28;20038;-70
2020/12/29 07:23:51;;;;;;;1.40;1.20;;;;;;;1.62;73.83;92765.09;4992838;28;20040;-68
2020/12/29 07:26:18;;;;;;;1.60;1.50;;;;;;;1.52;73.24;92759.06;4995280;28;20028;-70
2020/12/29 07:28:44;;;;;;;1.27;1.00;;;;;;;1.60;73.18;92775.13;4992341;28;20033;-70
2020/12/29 07:31:14;;;;;;;3.22;1.35;;;;;;;1.68;73.16;92774.34;4991730;28;20042;-70
2020/12/29 07:33:47;;;;;;;1.38;1.27;;;;;;;1.65;73.32;92764.50;4993109;28;20035;-68
2020/12/29 07:36:17;;;;;;;1.83;1.15;;;;;;;1.65;73.01;92764.50;4993194;28;20050;-68
2020/12/29 07:38:49;;;;;;;2.30;0.95;;;;;;;1.46;72.37;92757.66;4992646;28;20100;-69
2020/12/29 07:41:18;;;;;;;2.72;1.30;;;;;;;1.73;73.16;92787.31;4993423;28;20026;-67
2020/12/29 07:43:45;;;;;;;1.20;1.10;;;;;;;1.62;72.63;92781.56;4992781;28;20038;-69
2020/12/29 07:46:12;;;;;;;1.48;1.30;;;;;;;1.65;72.95;92767.09;4992434;28;20488;-68
2020/12/29 07:48:39;;;;;;;1.98;1.30;;;;;;;1.69;72.50;92788.97;4991401;28;20043;-68
2020/12/29 07:51:04;;;;;;;1.10;1.00;;;;;;;1.74;72.96;92804.56;4992590;28;20042;-69
2020/12/29 07:53:30;;;;;;;2.90;1.40;;;;;;;1.88;72.19;92807.84;4991254;28;20031;-68
2020/12/29 07:55:56;;;;;;;2.03;1.30;;;;;;;1.87;72.35;92806.28;4994548;28;20093;-68
2020/12/29 07:58:22;;;;;;;2.80;1.30;;;;;;;1.93;71.59;92812.16;4991956;28;20496;-69
2020/12/29 08:00:47;;;;;;;1.55;1.02;;;;;;;2.04;71.66;92819.41;4992419;28;20045;-69
2020/12/29 08:03:13;;;;;;;1.77;0.98;;;;;;;1.78;71.53;92771.44;4992039;28;20097;-69
2020/12/29 08:05:39;;;;;;;4.00;1.33;;;;;;;2.09;70.66;92811.41;4992349;28;20046;-69
2020/12/29 08:08:07;;;;;;;2.08;0.80;;;;;;;2.48;69.66;92841.22;4994301;28;20029;-75
2020/12/29 08:10:44;;;;;;;1.88;1.25;;;;;;;2.31;68.34;92783.50;4999122;23;20059;-64
2020/12/29 08:13:11;;;;;;;1.80;1.00;;;;;;;2.71;67.15;92831.28;4987311;28;20045;-65
2020/12/29 08:15:39;;;;;;;1.13;0.80;;;;;;;2.69;66.22;92767.84;4972597;28;20492;-66
2020/12/29 08:18:18;;;;;;;1.98;0.95;;;;;;;3.55;67.20;92829.84;4972790;28;20116;-63
2020/12/29 08:20:46;;;;;;;1.13;0.70;;;;;;;3.94;65.48;92841.09;4972698;28;20042;-64
2020/12/29 08:23:22;;;;;;;1.00;0.80;;;;;;;4.16;63.51;92859.25;4972814;28;20039;-65
2020/12/29 08:25:51;;;;;;;1.38;0.80;;;;;;;4.35;62.75;92861.44;4972909;28;20043;-65
2020/12/29 08:28:18;;;;;;;2.45;1.20;;;;;;;4.45;60.64;92860.28;4971884;28;20381;-64
2020/12/29 08:30:43;;;;;;;1.73;0.80;;;;;;;4.89;60.90;92876.53;4972507;28;20078;-65
2020/12/29 08:33:09;;;;;;;0.75;0.60;;;;;;;4.93;57.85;92856.34;4972208;28;20098;-63
2020/12/29 08:35:47;;;;;;;2.40;0.80;;;;;;;5.33;61.58;92874.25;4972338;28;20027;-63
2020/12/29 08:38:30;;;;;;;1.52;0.50;;;;;;;5.59;58.88;92879.25;4974369;28;20573;-63
2020/12/29 08:41:08;;;;;;;1.30;0.57;;;;;;;5.78;59.19;92882.13;4973143;28;20496;-62
2020/12/29 08:43:40;;;;;;;1.48;0.82;;;;;;;5.72;57.40;92886.06;4971987;28;20054;-62
2020/12/29 08:46:07;;;;;;;1.23;0.60;;;;;;;5.56;58.34;92883.31;4972246;28;20082;-63
2020/12/29 08:48:33;;;;;;;3.50;0.63;;;;;;;5.47;58.37;92888.66;4971891;28;20045;-62
2020/12/29 08:50:59;;;;;;;0.52;0.50;;;;;;;5.48;58.22;92898.13;4972027;28;20121;-63
2020/12/29 08:53:26;;;;;;;2.20;0.80;;;;;;;5.50;58.40;92910.22;4971873;28;20078;-63
2020/12/29 08:55:53;;;;;;;1.27;0.75;;;;;;;5.22;58.36;92908.94;4973648;28;20031;-63
2020/12/29 08:58:25;;;;;;;1.38;0.60;;;;;;;5.12;58.75;92905.94;4969313;28;20039;-63
2020/12/29 09:00:51;;;;;;;1.70;1.00;;;;;;;5.37;59.05;92910.16;4971994;28;20481;-61
2020/12/29 09:03:20;;;;;;;1.63;0.95;;;;;;;5.60;58.87;92923.00;4967024;28;20118;-63
2020/12/29 09:05:50;;;;;;;0.75;0.60;;;;;;;5.04;57.35;92912.81;4956131;28;20141;-62
2020/12/29 09:08:44;;;;;;;0.85;0.57;;;;;;;5.44;56.23;92933.38;4973459;28;20023;-63
2020/12/29 09:11:14;;;;;;;1.65;0.70;;;;;;;5.45;58.36;92919.88;4970677;28;20065;-62
2020/12/29 09:14:05;;;;;;;0.70;0.43;;;;;;;5.65;57.48;92941.25;4969588;28;20563;-60
2020/12/29 09:16:31;;;;;;;1.20;0.57;;;;;;;5.61;56.51;92943.00;4971544;28;20499;-63
2020/12/29 09:18:56;;;;;;;1.08;0.52;;;;;;;5.61;57.66;92922.66;4971187;28;20031;-61
2020/12/29 09:21:26;;;;;;;1.15;0.43;;;;;;;5.52;56.73;92939.66;4971271;28;20122;-63
2020/12/29 09:24:02;;;;;;;0.40;0.40;;;;;;;5.67;57.49;92958.28;4969685;28;20515;-62
2020/12/29 09:26:28;;;;;;;0.88;0.50;;;;;;;5.66;56.43;92935.63;4971848;28;20023;-63
2020/12/29 09:28:54;;;;;;;0.98;0.63;;;;;;;5.78;56.73;92961.25;4972655;28;20060;-63
2020/12/29 09:31:29;;;;;;;0.80;0.50;;;;;;;5.83;57.62;92970.84;4970924;28;20046;-62
2020/12/29 09:33:55;;;;;;;1.42;0.57;;;;;;;5.90;56.29;92971.09;4971099;28;20045;-63
2020/12/29 09:36:26;;;;;;;2.70;0.50;;;;;;;6.03;57.93;92979.81;4971326;28;20035;-64
2020/12/29 09:38:53;;;;;;;0.88;0.60;;;;;;;6.14;57.70;92975.66;4971167;28;20066;-64
2020/12/29 09:41:18;;;;;;;1.42;0.82;;;;;;;6.60;56.85;92992.94;4972490;28;20045;-62
2020/12/29 09:43:48;;;;;;;2.38;0.47;;;;;;;6.81;55.26;93006.06;4969409;28;20125;-62
2020/12/29 09:46:13;;;;;;;0.75;0.50;;;;;;;6.85;55.57;92996.34;4971103;28;20043;-62
2020/12/29 09:48:40;;;;;;;1.23;0.60;;;;;;;6.97;54.96;93016.72;4970951;28;20527;-62
2020/12/29 09:51:05;;;;;;;0.75;0.50;;;;;;;6.87;55.20;93015.28;4970884;28;20039;-62
2020/12/29 09:53:30;;;;;;;0.75;0.68;;;;;;;6.77;53.99;93013.09;4970851;28;20078;-63
2020/12/29 09:55:56;;;;;;;1.42;0.55;;;;;;;6.44;54.66;92981.50;4972792;28;20031;-60
2020/12/29 09:58:22;;;;;;;1.48;0.80;;;;;;;6.45;54.93;92998.91;4970468;28;20563;-60
2020/12/29 10:00:47;;;;;;;1.08;0.60;;;;;;;6.53;55.86;93013.88;4970810;28;20382;-62
2020/12/29 10:03:14;;;;;;;2.65;0.73;;;;;;;6.47;55.46;93000.09;4970764;28;20118;-71
2020/12/29 10:05:39;;;;;;;0.88;0.60;;;;;;;6.27;54.44;93022.09;4969606;28;20715;-61
2020/12/29 10:08:04;;;;;;;1.48;0.45;;;;;;;6.14;55.22;93005.47;4972503;28;20027;-61
2020/12/29 10:10:29;;;;;;;1.73;0.73;;;;;;;5.48;55.24;92908.69;4970362;28;20049;-61
2020/12/29 10:12:56;;;;;;;1.25;0.68;;;;;;;6.27;55.32;93010.75;4970837;28;20487;-65
2020/12/29 10:15:21;;;;;;;1.00;0.88;;;;;;;6.41;55.25;93021.78;4970795;28;20034;-62
2020/12/29 10:17:47;;;;;;;1.65;0.70;;;;;;;6.21;54.51;92999.66;4970796;28;20031;-62
2020/12/29 10:20:12;;;;;;;1.17;0.68;;;;;;;5.83;55.13;92982.16;4972201;28;20034;-61
2020/12/29 10:22:37;;;;;;;0.88;0.68;;;;;;;6.22;55.88;93017.03;4969585;28;20121;-61
2020/12/29 10:25:04;;;;;;;1.35;0.50;;;;;;;6.20;55.79;93029.78;4970695;28;20035;-61
2020/12/29 10:27:29;;;;;;;1.98;0.60;;;;;;;5.98;55.25;93015.09;4970587;28;20038;-60
2020/12/29 10:29:54;;;;;;;1.20;0.63;;;;;;;6.19;56.35;93017.66;4970165;28;20039;-61
2020/12/29 10:32:20;;;;;;;1.08;0.68;;;;;;;6.22;55.60;93025.72;4970530;28;20497;-64
2020/12/29 10:34:47;;;;;;;0.93;0.60;;;;;;;6.10;55.20;93019.66;4972236;28;20034;-60
2020/12/29 10:37:12;;;;;;;1.30;0.70;;;;;;;6.07;55.54;93025.56;4970909;28;20043;-61
2020/12/29 10:39:38;;;;;;;0.90;0.73;;;;;;;6.00;55.06;93007.66;4970610;28;20127;-60
2020/12/29 10:42:04;;;;;;;1.40;0.68;;;;;;;6.01;56.06;93001.25;4970321;28;20054;-61
2020/12/29 10:44:30;;;;;;;0.95;0.50;;;;;;;6.23;56.50;93052.88;4970504;28;20031;-60
2020/12/29 10:46:55;;;;;;;1.52;0.70;;;;;;;6.01;55.72;93035.56;4972489;28;20049;-61
2020/12/29 10:49:21;;;;;;;1.42;0.73;;;;;;;6.16;56.38;93055.28;4970467;28;20096;-62
2020/12/29 10:51:48;;;;;;;1.17;0.55;;;;;;;6.11;56.33;93055.50;4969079;28;20039;-67
2020/12/29 10:54:13;;;;;;;2.63;0.90;;;;;;;6.16;54.99;93057.94;4970476;28;20492;-62
2020/12/29 10:56:38;;;;;;;1.00;0.68;;;;;;;5.91;56.48;93049.16;4970519;28;20058;-60
2020/12/29 10:59:03;;;;;;;2.50;0.80;;;;;;;5.84;56.68;93035.72;4971716;28;20023;-61
2020/12/29 11:01:29;;;;;;;1.95;0.95;;;;;;;6.09;56.01;93074.31;4968899;28;20545;-60
2020/12/29 11:03:54;;;;;;;1.55;0.80;;;;;;;6.07;57.06;93054.59;4970473;28;20042;-61
2020/12/29 11:06:21;;;;;;;0.50;0.50;;;;;;;6.21;56.08;93069.06;4970418;28;20039;-61
2020/12/29 11:08:48;;;;;;;1.40;1.10;;;;;;;6.23;56.33;93080.03;4970211;28;20041;-60
2020/12/29 11:11:14;;;;;;;1.23;0.70;;;;;;;6.24;56.96;93057.06;4971958;28;20051;-60
2020/12/29 11:13:40;;;;;;;0.85;0.68;;;;;;;6.29;56.62;93061.34;4969035;28;20684;-61
2020/12/29 11:16:05;;;;;;;1.95;1.02;;;;;;;5.65;56.61;93034.31;4970507;28;20050;-62
2020/12/29 11:18:31;;;;;;;2.42;0.88;;;;;;;6.24;56.40;93088.75;4970182;28;20061;-61
2020/12/29 11:20:57;;;;;;;1.15;0.60;;;;;;;6.21;55.35;93087.53;4972832;28;20043;-63
2020/12/29 11:23:22;;;;;;;3.53;0.95;;;;;;;6.06;55.12;93056.47;4973579;28;20030;-58
2020/12/29 11:25:48;;;;;;;1.75;0.90;;;;;;;5.71;56.30;93072.59;4975636;28;20058;-59
2020/12/29 11:28:13;;;;;;;3.22;0.80;;;;;;;5.45;57.04;93074.66;4972841;28;20030;-60
2020/12/29 11:30:39;;;;;;;1.48;0.80;;;;;;;5.78;56.41;93100.31;4972131;28;20089;-60
2020/12/29 11:33:04;;;;;;;1.65;0.73;;;;;;;5.76;56.91;93097.22;4973239;28;20045;-61
2020/12/29 11:35:30;;;;;;;1.25;0.80;;;;;;;5.48;56.54;93113.59;4973324;28;20378;-60
2020/12/29 11:37:56;;;;;;;2.42;0.88;;;;;;;5.67;57.17;93102.56;4975207;28;20034;-60
2020/12/29 11:40:21;;;;;;;2.22;0.60;;;;;;;5.71;56.86;93098.19;4972602;28;20051;-60
2020/12/29 11:42:46;;;;;;;1.33;0.80;;;;;;;6.06;56.07;93117.19;4972882;28;20066;-60